createdAt,value
2017-05-08T00:00:06.787Z,9.53
2017-05-08T00:10:06.692Z,9.5
2017-05-08T00:20:06.765Z,9.3
2017-05-08T00:30:06.721Z,9.27
2017-05-08T00:40:06.714Z,9.25
2017-05-08T00:50:06.800Z,9.2
2017-05-08T01:00:06.736Z,9.32
2017-05-08T01:10:06.920Z,9.32
2017-05-08T01:20:06.867Z,9.32
2017-05-08T01:30:06.908Z,9.35
2017-05-08T01:40:06.771Z,9.4
2017-05-08T01:50:06.785Z,9.46
2017-05-08T02:00:06.787Z,9.48
2017-05-08T02:10:06.838Z,9.5
2017-05-08T02:20:06.811Z,9.52
2017-05-08T02:30:06.814Z,9.56
2017-05-08T02:40:06.806Z,9.63
2017-05-08T02:50:06.900Z,9.73
2017-05-08T03:00:06.865Z,9.68
2017-05-08T03:10:06.931Z,9.73
2017-05-08T03:20:06.857Z,9.82
2017-05-08T03:30:06.925Z,9.7
2017-05-08T03:40:06.870Z,9.7
2017-05-08T03:50:06.877Z,9.79
2017-05-08T04:00:06.910Z,9.79
2017-05-08T04:10:06.904Z,9.82
2017-05-08T04:20:06.929Z,9.86
2017-05-08T04:30:06.900Z,9.83
2017-05-08T04:40:06.905Z,9.82
2017-05-08T04:50:07.023Z,9.64
2017-05-08T05:00:06.936Z,9.43
2017-05-08T05:10:06.936Z,9.23
2017-05-08T05:20:07.009Z,9.18
2017-05-08T05:30:06.960Z,9.01
2017-05-08T05:40:07.052Z,8.81
2017-05-08T05:50:06.964Z,8.78
2017-05-08T06:00:06.988Z,8.93
2017-05-08T06:10:06.996Z,9.21
2017-05-08T06:20:06.985Z,9.32
2017-05-08T06:30:06.993Z,9.34
2017-05-08T06:40:07.118Z,9.68
2017-05-08T06:50:07.022Z,9.79
2017-05-08T07:00:07.053Z,9.83
2017-05-08T07:10:07.057Z,9.83
2017-05-08T07:20:07.034Z,10.12
2017-05-08T07:30:07.141Z,10.42
2017-05-08T07:40:07.076Z,10.58
2017-05-08T07:50:07.081Z,10.8
2017-05-08T08:00:07.149Z,11.2
2017-05-08T08:10:07.101Z,11.38
2017-05-08T08:20:07.127Z,11.75
2017-05-08T08:30:07.185Z,11.47
2017-05-08T08:40:07.109Z,11.35
2017-05-08T08:50:07.316Z,11.59
2017-05-08T09:00:07.123Z,11.96
2017-05-08T09:10:07.252Z,12.23
2017-05-08T09:20:07.213Z,12.12
2017-05-08T09:30:07.260Z,12.24
2017-05-08T09:40:20.898Z,12.6
2017-05-08T09:50:15.110Z,12.52
2017-05-08T10:00:07.292Z,12.84
2017-05-08T10:10:07.328Z,12.39
2017-05-08T10:20:07.551Z,12.93
2017-05-08T10:30:07.243Z,13.43
2017-05-08T10:40:07.247Z,14.32
2017-05-08T10:50:07.244Z,15.41
2017-05-08T11:00:07.349Z,14.78
2017-05-08T11:10:07.295Z,14.12
2017-05-08T11:20:07.285Z,13.56
2017-05-08T11:30:08.323Z,13.04
2017-05-08T11:40:07.320Z,13.03
2017-05-08T11:50:08.507Z,12.84
2017-05-08T12:00:07.340Z,12.95
2017-05-08T12:10:07.318Z,12.93
2017-05-08T12:20:07.430Z,12.88
2017-05-08T12:30:07.352Z,12.84
2017-05-08T12:40:07.342Z,12.54
2017-05-08T12:50:07.360Z,12.33
2017-05-08T13:00:08.404Z,12.41
2017-05-08T13:10:07.449Z,12.52
2017-05-08T13:20:08.169Z,12.71
2017-05-08T13:30:07.415Z,13.11
2017-05-08T13:40:07.519Z,13.12
2017-05-08T13:50:07.996Z,12.99
2017-05-08T14:00:07.659Z,12.51
2017-05-08T14:10:07.564Z,13.4
2017-05-08T14:20:07.474Z,13.74
2017-05-08T14:30:07.625Z,14.17
2017-05-08T14:40:07.609Z,15.38
2017-05-08T14:50:07.509Z,14.93
2017-05-08T15:00:07.504Z,14.99
2017-05-08T15:10:07.522Z,14.72
2017-05-08T15:20:07.564Z,14.5
2017-05-08T15:30:07.533Z,14.9
2017-05-08T15:40:07.560Z,15.7
2017-05-08T15:50:07.564Z,15.49
2017-05-08T16:00:07.596Z,15.88
2017-05-08T16:10:07.697Z,15.6
2017-05-08T16:20:07.637Z,15.08
2017-05-08T16:30:07.696Z,15.05
2017-05-08T16:40:07.648Z,15.17
2017-05-08T16:50:07.715Z,15.24
2017-05-08T17:00:07.618Z,15.11
2017-05-08T17:10:07.641Z,14.98
2017-05-08T17:20:07.644Z,14.75
2017-05-08T17:30:07.653Z,14.21
2017-05-08T17:40:07.700Z,13.8
2017-05-08T17:50:07.682Z,13.76
2017-05-08T18:00:07.691Z,13.59
2017-05-08T18:10:07.709Z,13.17
2017-05-08T18:20:07.855Z,12.77
2017-05-08T18:30:07.720Z,12.3
2017-05-08T18:40:07.716Z,12.06
2017-05-08T18:50:07.735Z,11.85
2017-05-08T19:00:07.737Z,11.5
2017-05-08T19:10:07.738Z,11.09
2017-05-08T19:20:07.773Z,10.71
2017-05-08T19:30:07.751Z,10.4
2017-05-08T19:40:07.819Z,10.28
2017-05-08T19:50:07.789Z,10.12
2017-05-08T20:00:07.769Z,9.78
2017-05-08T20:10:07.780Z,9.83
2017-05-08T20:20:07.848Z,9.56
2017-05-08T20:30:07.889Z,9.35
2017-05-08T20:40:07.933Z,9.42
2017-05-08T20:50:07.976Z,9.45
2017-05-08T21:00:08.317Z,9.52
2017-05-08T21:10:08.257Z,9.42
2017-05-08T21:20:08.419Z,9.15
2017-05-08T21:30:08.014Z,8.66
2017-05-08T21:40:07.952Z,8.44
2017-05-08T21:50:08.201Z,8.32
2017-05-08T22:00:07.905Z,7.99
2017-05-08T22:10:07.920Z,7.69
2017-05-08T22:20:07.898Z,7.44
2017-05-08T22:30:07.956Z,7.16
2017-05-08T22:40:07.965Z,6.95
2017-05-08T22:50:08.058Z,6.73
2017-05-08T23:00:07.942Z,6.63
2017-05-08T23:10:07.930Z,6.77
2017-05-08T23:20:07.918Z,6.72
2017-05-08T23:30:07.966Z,6.54
2017-05-08T23:40:07.940Z,6.29
2017-05-08T23:50:08.053Z,5.96
